Terminal Aerodrome Forecast
Issued by NWS

Home | Current Version | Previous Version | Text Only | Print | Product List | Glossary On
Versions: 1 2 3 4 5 6 7 8 9 10 11 12 13 14 15 16 17
000
FTAK31 PAJN 290916 AAA
TAFAPG
TAF AMD
PAPG 290916Z 2909/3006 00000KT P6SM OVC100
     FM291800 06005KT P6SM FEW025 OVC100
      AMD LTD TO CLD VIS AND WIND 2909/2915=

USA.gov is the U.S. government's official web portal to all federal, state and local government web resources and services.